sensor_id;sensor_type;location;lat;lon;timestamp;P1;durP1;ratioP1;P2;durP2;ratioP2
7573;SDS011;3828;48.922;9.116;2022-07-21T00:01:38;11.60;;;10.50;;
7573;SDS011;3828;48.922;9.116;2022-07-21T00:04:05;10.80;;;9.90;;
7573;SDS011;3828;48.922;9.116;2022-07-21T00:06:31;10.53;;;9.53;;
7573;SDS011;3828;48.922;9.116;2022-07-21T00:08:58;11.20;;;10.10;;
7573;SDS011;3828;48.922;9.116;2022-07-21T00:11:25;12.13;;;11.13;;
7573;SDS011;3828;48.922;9.116;2022-07-21T00:13:52;11.57;;;10.53;;
7573;SDS011;3828;48.922;9.116;2022-07-21T00:16:18;11.77;;;10.67;;
7573;SDS011;3828;48.922;9.116;2022-07-21T00:18:47;11.33;;;10.13;;
7573;SDS011;3828;48.922;9.116;2022-07-21T00:21:13;10.27;;;9.33;;
7573;SDS011;3828;48.922;9.116;2022-07-21T00:23:40;11.07;;;9.97;;
7573;SDS011;3828;48.922;9.116;2022-07-21T00:26:07;11.93;;;10.77;;
7573;SDS011;3828;48.922;9.116;2022-07-21T00:28:34;12.13;;;11.03;;
7573;SDS011;3828;48.922;9.116;2022-07-21T00:31:01;12.13;;;10.80;;
7573;SDS011;3828;48.922;9.116;2022-07-21T00:33:27;10.60;;;9.60;;
7573;SDS011;3828;48.922;9.116;2022-07-21T00:35:56;11.87;;;10.27;;
7573;SDS011;3828;48.922;9.116;2022-07-21T00:38:23;11.57;;;10.33;;
7573;SDS011;3828;48.922;9.116;2022-07-21T00:40:49;19.50;;;10.73;;
7573;SDS011;3828;48.922;9.116;2022-07-21T00:43:16;10.73;;;9.63;;
7573;SDS011;3828;48.922;9.116;2022-07-21T00:45:43;10.73;;;9.77;;
7573;SDS011;3828;48.922;9.116;2022-07-21T00:48:10;11.67;;;10.00;;
7573;SDS011;3828;48.922;9.116;2022-07-21T00:50:36;10.77;;;9.80;;
7573;SDS011;3828;48.922;9.116;2022-07-21T00:53:05;10.70;;;8.90;;
7573;SDS011;3828;48.922;9.116;2022-07-21T00:55:31;10.03;;;9.07;;
7573;SDS011;3828;48.922;9.116;2022-07-21T00:57:58;11.00;;;9.80;;
7573;SDS011;3828;48.922;9.116;2022-07-21T01:00:27;11.80;;;10.70;;
7573;SDS011;3828;48.922;9.116;2022-07-21T01:02:55;10.23;;;9.20;;
7573;SDS011;3828;48.922;9.116;2022-07-21T01:05:22;11.23;;;10.03;;
7573;SDS011;3828;48.922;9.116;2022-07-21T01:07:50;9.93;;;8.83;;
7573;SDS011;3828;48.922;9.116;2022-07-21T01:10:22;9.73;;;8.90;;
7573;SDS011;3828;48.922;9.116;2022-07-21T01:12:50;10.17;;;9.13;;
7573;SDS011;3828;48.922;9.116;2022-07-21T01:15:18;11.00;;;9.90;;
7573;SDS011;3828;48.922;9.116;2022-07-21T01:17:46;10.60;;;9.57;;
7573;SDS011;3828;48.922;9.116;2022-07-21T01:20:14;11.20;;;10.10;;
7573;SDS011;3828;48.922;9.116;2022-07-21T01:22:44;12.63;;;10.83;;
7573;SDS011;3828;48.922;9.116;2022-07-21T01:25:13;12.27;;;11.07;;
7573;SDS011;3828;48.922;9.116;2022-07-21T01:27:41;11.30;;;10.20;;
7573;SDS011;3828;48.922;9.116;2022-07-21T01:30:08;13.83;;;12.37;;
7573;SDS011;3828;48.922;9.116;2022-07-21T01:32:37;12.53;;;11.30;;
7573;SDS011;3828;48.922;9.116;2022-07-21T01:35:06;11.40;;;10.17;;
7573;SDS011;3828;48.922;9.116;2022-07-21T01:37:36;11.67;;;10.57;;
7573;SDS011;3828;48.922;9.116;2022-07-21T01:40:06;12.37;;;11.07;;
7573;SDS011;3828;48.922;9.116;2022-07-21T01:43:06;12.40;;;10.40;;
7573;SDS011;3828;48.922;9.116;2022-07-21T01:45:33;10.97;;;10.07;;
7573;SDS011;3828;48.922;9.116;2022-07-21T01:47:59;11.93;;;10.83;;
7573;SDS011;3828;48.922;9.116;2022-07-21T01:50:26;12.17;;;11.07;;
7573;SDS011;3828;48.922;9.116;2022-07-21T01:52:53;11.47;;;10.47;;
7573;SDS011;3828;48.922;9.116;2022-07-21T01:55:23;12.93;;;11.67;;
7573;SDS011;3828;48.922;9.116;2022-07-21T01:57:51;11.40;;;10.30;;
7573;SDS011;3828;48.922;9.116;2022-07-21T02:00:18;12.63;;;11.57;;
7573;SDS011;3828;48.922;9.116;2022-07-21T02:02:46;10.90;;;9.93;;
7573;SDS011;3828;48.922;9.116;2022-07-21T02:05:13;12.67;;;11.47;;
7573;SDS011;3828;48.922;9.116;2022-07-21T02:07:39;12.80;;;11.70;;
7573;SDS011;3828;48.922;9.116;2022-07-21T02:10:07;13.27;;;11.77;;
7573;SDS011;3828;48.922;9.116;2022-07-21T02:12:35;12.60;;;11.40;;
7573;SDS011;3828;48.922;9.116;2022-07-21T02:15:02;13.63;;;12.10;;
7573;SDS011;3828;48.922;9.116;2022-07-21T02:17:29;14.30;;;11.50;;
7573;SDS011;3828;48.922;9.116;2022-07-21T02:19:56;12.80;;;11.23;;
7573;SDS011;3828;48.922;9.116;2022-07-21T02:22:23;12.83;;;11.63;;
7573;SDS011;3828;48.922;9.116;2022-07-21T02:24:50;12.17;;;10.87;;
7573;SDS011;3828;48.922;9.116;2022-07-21T02:27:17;13.67;;;10.93;;
7573;SDS011;3828;48.922;9.116;2022-07-21T02:29:45;12.53;;;11.13;;
7573;SDS011;3828;48.922;9.116;2022-07-21T02:32:12;11.97;;;10.87;;
7573;SDS011;3828;48.922;9.116;2022-07-21T02:34:38;11.90;;;10.73;;
7573;SDS011;3828;48.922;9.116;2022-07-21T02:37:05;12.47;;;11.27;;
7573;SDS011;3828;48.922;9.116;2022-07-21T02:39:32;12.07;;;10.97;;
7573;SDS011;3828;48.922;9.116;2022-07-21T02:41:59;13.13;;;11.93;;
7573;SDS011;3828;48.922;9.116;2022-07-21T02:44:26;12.97;;;11.57;;
7573;SDS011;3828;48.922;9.116;2022-07-21T02:46:55;10.60;;;9.70;;
7573;SDS011;3828;48.922;9.116;2022-07-21T02:49:22;12.33;;;11.13;;
7573;SDS011;3828;48.922;9.116;2022-07-21T02:51:49;13.03;;;11.23;;
7573;SDS011;3828;48.922;9.116;2022-07-21T02:54:16;13.50;;;12.20;;
7573;SDS011;3828;48.922;9.116;2022-07-21T02:56:42;12.83;;;11.40;;
7573;SDS011;3828;48.922;9.116;2022-07-21T02:59:09;12.00;;;10.87;;
7573;SDS011;3828;48.922;9.116;2022-07-21T03:01:36;11.00;;;10.00;;
7573;SDS011;3828;48.922;9.116;2022-07-21T03:04:04;12.00;;;10.77;;
7573;SDS011;3828;48.922;9.116;2022-07-21T03:06:31;13.10;;;11.27;;
7573;SDS011;3828;48.922;9.116;2022-07-21T03:08:58;12.33;;;9.67;;
7573;SDS011;3828;48.922;9.116;2022-07-21T03:11:25;11.33;;;10.23;;
7573;SDS011;3828;48.922;9.116;2022-07-21T03:13:52;12.83;;;11.60;;
7573;SDS011;3828;48.922;9.116;2022-07-21T03:16:19;11.87;;;10.87;;
7573;SDS011;3828;48.922;9.116;2022-07-21T03:18:46;11.57;;;10.57;;
7573;SDS011;3828;48.922;9.116;2022-07-21T03:21:14;11.83;;;10.73;;
7573;SDS011;3828;48.922;9.116;2022-07-21T03:23:40;11.10;;;10.00;;
7573;SDS011;3828;48.922;9.116;2022-07-21T03:26:10;14.47;;;10.83;;
7573;SDS011;3828;48.922;9.116;2022-07-21T03:28:37;13.60;;;10.80;;
7573;SDS011;3828;48.922;9.116;2022-07-21T03:31:04;11.20;;;9.83;;
7573;SDS011;3828;48.922;9.116;2022-07-21T03:33:31;11.17;;;10.07;;
7573;SDS011;3828;48.922;9.116;2022-07-21T03:35:58;10.80;;;9.57;;
7573;SDS011;3828;48.922;9.116;2022-07-21T03:38:27;11.83;;;10.83;;
7573;SDS011;3828;48.922;9.116;2022-07-21T03:40:54;11.20;;;10.20;;
7573;SDS011;3828;48.922;9.116;2022-07-21T03:43:21;12.33;;;11.33;;
7573;SDS011;3828;48.922;9.116;2022-07-21T03:45:47;14.03;;;11.10;;
7573;SDS011;3828;48.922;9.116;2022-07-21T03:48:14;11.07;;;10.07;;
7573;SDS011;3828;48.922;9.116;2022-07-21T03:50:41;12.37;;;10.80;;
7573;SDS011;3828;48.922;9.116;2022-07-21T03:53:08;11.50;;;10.40;;
7573;SDS011;3828;48.922;9.116;2022-07-21T03:55:37;10.93;;;9.93;;
7573;SDS011;3828;48.922;9.116;2022-07-21T03:58:04;11.43;;;10.33;;
7573;SDS011;3828;48.922;9.116;2022-07-21T04:00:32;11.97;;;10.70;;
7573;SDS011;3828;48.922;9.116;2022-07-21T04:03:01;12.73;;;11.50;;
7573;SDS011;3828;48.922;9.116;2022-07-21T04:05:29;11.77;;;10.77;;
7573;SDS011;3828;48.922;9.116;2022-07-21T04:07:56;12.87;;;11.67;;
7573;SDS011;3828;48.922;9.116;2022-07-21T04:10:24;13.93;;;11.07;;
7573;SDS011;3828;48.922;9.116;2022-07-21T04:12:54;11.37;;;10.23;;
7573;SDS011;3828;48.922;9.116;2022-07-21T04:15:21;12.43;;;11.23;;
7573;SDS011;3828;48.922;9.116;2022-07-21T04:17:49;12.33;;;11.07;;
7573;SDS011;3828;48.922;9.116;2022-07-21T04:20:16;10.83;;;9.63;;
7573;SDS011;3828;48.922;9.116;2022-07-21T04:22:43;12.03;;;10.60;;
7573;SDS011;3828;48.922;9.116;2022-07-21T04:25:12;12.20;;;11.00;;
7573;SDS011;3828;48.922;9.116;2022-07-21T04:27:39;10.83;;;9.83;;
7573;SDS011;3828;48.922;9.116;2022-07-21T04:30:09;11.53;;;10.50;;
7573;SDS011;3828;48.922;9.116;2022-07-21T04:32:40;14.00;;;10.17;;
7573;SDS011;3828;48.922;9.116;2022-07-21T04:35:07;11.00;;;10.00;;
7573;SDS011;3828;48.922;9.116;2022-07-21T04:37:35;11.90;;;10.80;;
7573;SDS011;3828;48.922;9.116;2022-07-21T04:40:02;10.90;;;9.90;;
7573;SDS011;3828;48.922;9.116;2022-07-21T04:42:31;11.60;;;10.50;;
7573;SDS011;3828;48.922;9.116;2022-07-21T04:44:58;13.50;;;10.67;;
7573;SDS011;3828;48.922;9.116;2022-07-21T04:47:26;11.40;;;10.13;;
7573;SDS011;3828;48.922;9.116;2022-07-21T04:49:53;12.27;;;11.07;;
7573;SDS011;3828;48.922;9.116;2022-07-21T04:52:20;14.20;;;12.90;;
7573;SDS011;3828;48.922;9.116;2022-07-21T04:54:46;12.27;;;11.00;;
7573;SDS011;3828;48.922;9.116;2022-07-21T04:57:13;11.73;;;10.67;;
7573;SDS011;3828;48.922;9.116;2022-07-21T04:59:40;11.60;;;10.47;;
7573;SDS011;3828;48.922;9.116;2022-07-21T05:02:07;11.63;;;10.63;;
7573;SDS011;3828;48.922;9.116;2022-07-21T05:04:35;13.47;;;11.07;;
7573;SDS011;3828;48.922;9.116;2022-07-21T05:07:02;11.60;;;10.50;;
7573;SDS011;3828;48.922;9.116;2022-07-21T05:09:29;11.20;;;10.10;;
7573;SDS011;3828;48.922;9.116;2022-07-21T05:11:55;12.10;;;9.93;;
7573;SDS011;3828;48.922;9.116;2022-07-21T05:14:22;13.17;;;11.20;;
7573;SDS011;3828;48.922;9.116;2022-07-21T05:16:49;12.17;;;11.07;;
7573;SDS011;3828;48.922;9.116;2022-07-21T05:19:16;11.20;;;10.20;;
7573;SDS011;3828;48.922;9.116;2022-07-21T05:21:44;12.70;;;11.20;;
7573;SDS011;3828;48.922;9.116;2022-07-21T05:24:12;11.93;;;10.83;;
7573;SDS011;3828;48.922;9.116;2022-07-21T05:26:39;13.27;;;11.87;;
7573;SDS011;3828;48.922;9.116;2022-07-21T05:29:06;11.47;;;10.50;;
7573;SDS011;3828;48.922;9.116;2022-07-21T05:31:33;11.63;;;10.63;;
7573;SDS011;3828;48.922;9.116;2022-07-21T05:33:59;12.33;;;11.03;;
7573;SDS011;3828;48.922;9.116;2022-07-21T05:36:26;12.23;;;11.03;;
7573;SDS011;3828;48.922;9.116;2022-07-21T05:38:54;11.37;;;10.37;;
7573;SDS011;3828;48.922;9.116;2022-07-21T05:41:21;12.13;;;11.13;;
7573;SDS011;3828;48.922;9.116;2022-07-21T05:43:48;11.03;;;10.03;;
7573;SDS011;3828;48.922;9.116;2022-07-21T05:46:15;12.07;;;10.93;;
7573;SDS011;3828;48.922;9.116;2022-07-21T05:48:42;11.63;;;10.63;;
7573;SDS011;3828;48.922;9.116;2022-07-21T05:51:08;13.83;;;11.60;;
7573;SDS011;3828;48.922;9.116;2022-07-21T05:53:35;15.43;;;11.10;;
7573;SDS011;3828;48.922;9.116;2022-07-21T05:56:03;13.47;;;12.27;;
7573;SDS011;3828;48.922;9.116;2022-07-21T05:58:32;12.23;;;11.13;;
7573;SDS011;3828;48.922;9.116;2022-07-21T06:00:59;11.90;;;10.80;;
7573;SDS011;3828;48.922;9.116;2022-07-21T06:03:37;12.23;;;10.80;;
7573;SDS011;3828;48.922;9.116;2022-07-21T06:06:05;11.60;;;10.27;;
7573;SDS011;3828;48.922;9.116;2022-07-21T06:08:32;12.57;;;11.27;;
7573;SDS011;3828;48.922;9.116;2022-07-21T06:10:59;15.20;;;11.27;;
7573;SDS011;3828;48.922;9.116;2022-07-21T06:13:27;12.40;;;11.10;;
7573;SDS011;3828;48.922;9.116;2022-07-21T06:15:54;11.03;;;9.83;;
7573;SDS011;3828;48.922;9.116;2022-07-21T06:18:21;11.83;;;10.70;;
7573;SDS011;3828;48.922;9.116;2022-07-21T06:20:47;11.37;;;10.27;;
7573;SDS011;3828;48.922;9.116;2022-07-21T06:23:14;13.00;;;10.30;;
7573;SDS011;3828;48.922;9.116;2022-07-21T06:25:41;10.50;;;9.47;;
7573;SDS011;3828;48.922;9.116;2022-07-21T06:28:08;11.10;;;10.13;;
7573;SDS011;3828;48.922;9.116;2022-07-21T06:30:36;10.73;;;9.77;;
7573;SDS011;3828;48.922;9.116;2022-07-21T06:33:04;11.63;;;9.90;;
7573;SDS011;3828;48.922;9.116;2022-07-21T06:35:31;11.60;;;10.60;;
7573;SDS011;3828;48.922;9.116;2022-07-21T06:37:57;13.50;;;10.87;;
7573;SDS011;3828;48.922;9.116;2022-07-21T06:40:24;10.40;;;9.50;;
7573;SDS011;3828;48.922;9.116;2022-07-21T06:42:51;10.57;;;9.67;;
7573;SDS011;3828;48.922;9.116;2022-07-21T06:45:18;8.83;;;7.90;;
7573;SDS011;3828;48.922;9.116;2022-07-21T06:47:46;8.27;;;7.37;;
7573;SDS011;3828;48.922;9.116;2022-07-21T06:50:12;8.37;;;7.43;;
7573;SDS011;3828;48.922;9.116;2022-07-21T06:52:39;10.33;;;9.20;;
7573;SDS011;3828;48.922;9.116;2022-07-21T06:55:07;8.73;;;7.90;;
7573;SDS011;3828;48.922;9.116;2022-07-21T06:57:35;8.20;;;7.37;;
7573;SDS011;3828;48.922;9.116;2022-07-21T07:00:03;8.73;;;7.83;;
7573;SDS011;3828;48.922;9.116;2022-07-21T07:02:31;8.07;;;6.80;;
7573;SDS011;3828;48.922;9.116;2022-07-21T07:04:59;7.73;;;7.03;;
7573;SDS011;3828;48.922;9.116;2022-07-21T07:07:25;7.70;;;7.00;;
7573;SDS011;3828;48.922;9.116;2022-07-21T07:09:54;9.83;;;7.40;;
7573;SDS011;3828;48.922;9.116;2022-07-21T07:12:21;6.90;;;6.33;;
7573;SDS011;3828;48.922;9.116;2022-07-21T07:14:48;7.80;;;7.20;;
7573;SDS011;3828;48.922;9.116;2022-07-21T07:17:15;8.40;;;7.60;;
7573;SDS011;3828;48.922;9.116;2022-07-21T07:19:43;8.17;;;7.43;;
7573;SDS011;3828;48.922;9.116;2022-07-21T07:22:11;7.43;;;6.80;;
7573;SDS011;3828;48.922;9.116;2022-07-21T07:24:38;7.60;;;7.00;;
7573;SDS011;3828;48.922;9.116;2022-07-21T07:27:05;8.33;;;7.63;;
7573;SDS011;3828;48.922;9.116;2022-07-21T07:29:32;9.97;;;7.30;;
7573;SDS011;3828;48.922;9.116;2022-07-21T07:31:59;7.30;;;6.60;;
7573;SDS011;3828;48.922;9.116;2022-07-21T07:34:26;9.77;;;6.40;;
7573;SDS011;3828;48.922;9.116;2022-07-21T07:36:52;8.07;;;7.00;;
7573;SDS011;3828;48.922;9.116;2022-07-21T07:39:21;8.73;;;7.60;;
7573;SDS011;3828;48.922;9.116;2022-07-21T07:41:47;7.33;;;6.67;;
7573;SDS011;3828;48.922;9.116;2022-07-21T07:44:14;8.20;;;7.40;;
7573;SDS011;3828;48.922;9.116;2022-07-21T07:46:41;7.33;;;6.63;;
7573;SDS011;3828;48.922;9.116;2022-07-21T07:49:08;7.77;;;6.70;;
7573;SDS011;3828;48.922;9.116;2022-07-21T07:51:36;7.47;;;6.77;;
7573;SDS011;3828;48.922;9.116;2022-07-21T07:54:03;7.87;;;7.17;;
7573;SDS011;3828;48.922;9.116;2022-07-21T07:56:32;7.57;;;6.17;;
7573;SDS011;3828;48.922;9.116;2022-07-21T07:58:59;7.93;;;7.33;;
7573;SDS011;3828;48.922;9.116;2022-07-21T08:01:25;7.70;;;6.93;;
7573;SDS011;3828;48.922;9.116;2022-07-21T08:03:52;6.70;;;6.10;;
7573;SDS011;3828;48.922;9.116;2022-07-21T08:06:19;6.93;;;6.43;;
7573;SDS011;3828;48.922;9.116;2022-07-21T08:08:46;6.77;;;6.13;;
7573;SDS011;3828;48.922;9.116;2022-07-21T08:11:13;7.07;;;6.27;;
7573;SDS011;3828;48.922;9.116;2022-07-21T08:13:41;7.53;;;6.87;;
7573;SDS011;3828;48.922;9.116;2022-07-21T08:16:08;6.57;;;6.00;;
7573;SDS011;3828;48.922;9.116;2022-07-21T08:18:37;6.40;;;5.77;;
7573;SDS011;3828;48.922;9.116;2022-07-21T08:21:04;6.80;;;6.20;;
7573;SDS011;3828;48.922;9.116;2022-07-21T08:23:31;5.97;;;5.37;;
7573;SDS011;3828;48.922;9.116;2022-07-21T08:25:57;6.93;;;5.90;;
7573;SDS011;3828;48.922;9.116;2022-07-21T08:28:25;6.47;;;5.87;;
7573;SDS011;3828;48.922;9.116;2022-07-21T08:30:53;6.37;;;5.80;;
7573;SDS011;3828;48.922;9.116;2022-07-21T08:33:20;6.10;;;5.60;;
7573;SDS011;3828;48.922;9.116;2022-07-21T08:35:47;5.90;;;5.20;;
7573;SDS011;3828;48.922;9.116;2022-07-21T08:38:14;5.23;;;4.83;;
7573;SDS011;3828;48.922;9.116;2022-07-21T08:40:41;6.30;;;5.77;;
7573;SDS011;3828;48.922;9.116;2022-07-21T08:43:09;6.60;;;5.47;;
7573;SDS011;3828;48.922;9.116;2022-07-21T08:45:38;6.10;;;5.47;;
7573;SDS011;3828;48.922;9.116;2022-07-21T08:48:07;5.40;;;5.00;;
7573;SDS011;3828;48.922;9.116;2022-07-21T08:50:35;5.30;;;4.80;;
7573;SDS011;3828;48.922;9.116;2022-07-21T08:53:03;5.40;;;4.83;;
7573;SDS011;3828;48.922;9.116;2022-07-21T08:55:30;5.70;;;5.10;;
7573;SDS011;3828;48.922;9.116;2022-07-21T08:57:58;8.27;;;4.70;;
7573;SDS011;3828;48.922;9.116;2022-07-21T09:00:26;5.27;;;4.83;;
7573;SDS011;3828;48.922;9.116;2022-07-21T09:06:03;5.83;;;4.67;;
7573;SDS011;3828;48.922;9.116;2022-07-21T09:08:33;4.63;;;4.20;;
7573;SDS011;3828;48.922;9.116;2022-07-21T09:11:12;5.20;;;4.80;;
7573;SDS011;3828;48.922;9.116;2022-07-21T09:13:44;4.60;;;4.13;;
7573;SDS011;3828;48.922;9.116;2022-07-21T09:16:20;4.80;;;4.47;;
7573;SDS011;3828;48.922;9.116;2022-07-21T09:18:58;4.73;;;4.27;;
7573;SDS011;3828;48.922;9.116;2022-07-21T09:21:26;9.53;;;4.90;;
7573;SDS011;3828;48.922;9.116;2022-07-21T09:23:58;6.27;;;5.00;;
7573;SDS011;3828;48.922;9.116;2022-07-21T09:26:50;4.87;;;4.47;;
7573;SDS011;3828;48.922;9.116;2022-07-21T09:29:24;5.43;;;4.93;;
7573;SDS011;3828;48.922;9.116;2022-07-21T09:31:51;6.20;;;5.07;;
7573;SDS011;3828;48.922;9.116;2022-07-21T09:34:18;5.43;;;4.93;;
7573;SDS011;3828;48.922;9.116;2022-07-21T09:36:55;4.67;;;4.27;;
7573;SDS011;3828;48.922;9.116;2022-07-21T09:42:16;5.10;;;4.73;;
7573;SDS011;3828;48.922;9.116;2022-07-21T09:44:46;6.93;;;4.50;;
7573;SDS011;3828;48.922;9.116;2022-07-21T09:47:15;5.03;;;4.63;;
7573;SDS011;3828;48.922;9.116;2022-07-21T09:49:43;5.03;;;4.53;;
7573;SDS011;3828;48.922;9.116;2022-07-21T09:52:28;4.67;;;4.27;;
7573;SDS011;3828;48.922;9.116;2022-07-21T09:54:57;5.63;;;4.93;;
7573;SDS011;3828;48.922;9.116;2022-07-21T09:57:26;4.67;;;4.27;;
7573;SDS011;3828;48.922;9.116;2022-07-21T09:59:53;4.47;;;4.00;;
7573;SDS011;3828;48.922;9.116;2022-07-21T10:02:22;5.83;;;4.33;;
7573;SDS011;3828;48.922;9.116;2022-07-21T10:04:56;4.83;;;3.83;;
7573;SDS011;3828;48.922;9.116;2022-07-21T10:07:25;4.43;;;4.13;;
7573;SDS011;3828;48.922;9.116;2022-07-21T10:09:54;4.80;;;4.13;;
7573;SDS011;3828;48.922;9.116;2022-07-21T10:12:22;4.50;;;3.90;;
7573;SDS011;3828;48.922;9.116;2022-07-21T10:14:49;4.07;;;3.67;;
7573;SDS011;3828;48.922;9.116;2022-07-21T10:17:16;3.93;;;3.57;;
7573;SDS011;3828;48.922;9.116;2022-07-21T10:19:47;3.90;;;3.53;;
7573;SDS011;3828;48.922;9.116;2022-07-21T10:22:22;3.87;;;3.57;;
7573;SDS011;3828;48.922;9.116;2022-07-21T10:24:57;4.33;;;3.93;;
7573;SDS011;3828;48.922;9.116;2022-07-21T10:27:24;3.77;;;3.43;;
7573;SDS011;3828;48.922;9.116;2022-07-21T10:29:55;5.00;;;3.90;;
7573;SDS011;3828;48.922;9.116;2022-07-21T10:32:26;4.20;;;3.83;;
7573;SDS011;3828;48.922;9.116;2022-07-21T10:34:55;3.67;;;3.37;;
7573;SDS011;3828;48.922;9.116;2022-07-21T10:49:00;4.10;;;3.70;;
7573;SDS011;3828;48.922;9.116;2022-07-21T10:51:27;4.20;;;3.90;;
7573;SDS011;3828;48.922;9.116;2022-07-21T10:56:43;6.40;;;4.23;;
7573;SDS011;3828;48.922;9.116;2022-07-21T10:59:10;4.07;;;3.43;;
7573;SDS011;3828;48.922;9.116;2022-07-21T11:01:37;5.87;;;3.70;;
7573;SDS011;3828;48.922;9.116;2022-07-21T11:04:08;4.47;;;4.07;;
7573;SDS011;3828;48.922;9.116;2022-07-21T11:06:36;5.00;;;3.77;;
7573;SDS011;3828;48.922;9.116;2022-07-21T11:09:10;4.67;;;3.80;;
7573;SDS011;3828;48.922;9.116;2022-07-21T11:11:39;4.03;;;3.63;;
7573;SDS011;3828;48.922;9.116;2022-07-21T11:14:22;3.73;;;3.43;;
7573;SDS011;3828;48.922;9.116;2022-07-21T11:17:01;4.53;;;4.13;;
7573;SDS011;3828;48.922;9.116;2022-07-21T11:19:29;5.37;;;3.70;;
7573;SDS011;3828;48.922;9.116;2022-07-21T11:21:58;4.03;;;3.73;;
7573;SDS011;3828;48.922;9.116;2022-07-21T11:24:26;5.77;;;4.07;;
7573;SDS011;3828;48.922;9.116;2022-07-21T11:26:54;4.77;;;3.40;;
7573;SDS011;3828;48.922;9.116;2022-07-21T11:29:22;4.33;;;3.93;;
7573;SDS011;3828;48.922;9.116;2022-07-21T11:31:50;21.03;;;19.03;;
7573;SDS011;3828;48.922;9.116;2022-07-21T11:34:17;7.13;;;6.43;;
7573;SDS011;3828;48.922;9.116;2022-07-21T11:36:44;4.80;;;4.40;;
7573;SDS011;3828;48.922;9.116;2022-07-21T11:39:12;4.43;;;4.13;;
7573;SDS011;3828;48.922;9.116;2022-07-21T11:41:44;4.50;;;4.03;;
7573;SDS011;3828;48.922;9.116;2022-07-21T11:44:11;4.33;;;4.03;;
7573;SDS011;3828;48.922;9.116;2022-07-21T11:46:50;4.83;;;4.30;;
7573;SDS011;3828;48.922;9.116;2022-07-21T11:49:18;4.03;;;3.73;;
7573;SDS011;3828;48.922;9.116;2022-07-21T11:51:46;5.30;;;4.80;;
7573;SDS011;3828;48.922;9.116;2022-07-21T11:54:19;4.90;;;4.40;;
7573;SDS011;3828;48.922;9.116;2022-07-21T11:56:52;4.43;;;4.07;;
7573;SDS011;3828;48.922;9.116;2022-07-21T11:59:19;4.73;;;4.37;;
7573;SDS011;3828;48.922;9.116;2022-07-21T12:01:51;4.73;;;4.33;;
7573;SDS011;3828;48.922;9.116;2022-07-21T12:04:26;4.43;;;3.83;;
7573;SDS011;3828;48.922;9.116;2022-07-21T12:06:53;5.93;;;5.37;;
7573;SDS011;3828;48.922;9.116;2022-07-21T12:09:21;4.47;;;4.07;;
7573;SDS011;3828;48.922;9.116;2022-07-21T12:11:49;5.20;;;4.70;;
7573;SDS011;3828;48.922;9.116;2022-07-21T12:14:16;4.33;;;3.80;;
7573;SDS011;3828;48.922;9.116;2022-07-21T12:16:47;4.53;;;4.13;;
7573;SDS011;3828;48.922;9.116;2022-07-21T12:19:17;4.87;;;4.47;;
7573;SDS011;3828;48.922;9.116;2022-07-21T12:21:45;4.83;;;4.27;;
7573;SDS011;3828;48.922;9.116;2022-07-21T12:24:16;5.23;;;4.73;;
7573;SDS011;3828;48.922;9.116;2022-07-21T12:26:43;5.00;;;4.50;;
7573;SDS011;3828;48.922;9.116;2022-07-21T12:29:10;5.23;;;4.77;;
7573;SDS011;3828;48.922;9.116;2022-07-21T12:31:51;4.80;;;4.30;;
7573;SDS011;3828;48.922;9.116;2022-07-21T12:34:21;4.27;;;3.87;;
7573;SDS011;3828;48.922;9.116;2022-07-21T12:36:49;8.20;;;4.27;;
7573;SDS011;3828;48.922;9.116;2022-07-21T12:39:17;4.97;;;4.20;;
7573;SDS011;3828;48.922;9.116;2022-07-21T12:42:04;6.50;;;4.53;;
7573;SDS011;3828;48.922;9.116;2022-07-21T12:44:32;4.63;;;4.27;;
7573;SDS011;3828;48.922;9.116;2022-07-21T12:47:11;4.60;;;4.20;;
7573;SDS011;3828;48.922;9.116;2022-07-21T12:50:01;4.77;;;3.63;;
7573;SDS011;3828;48.922;9.116;2022-07-21T12:52:29;4.90;;;4.07;;
7573;SDS011;3828;48.922;9.116;2022-07-21T12:54:57;5.10;;;4.13;;
7573;SDS011;3828;48.922;9.116;2022-07-21T12:57:25;4.43;;;4.03;;
7573;SDS011;3828;48.922;9.116;2022-07-21T12:59:53;3.70;;;3.47;;
7573;SDS011;3828;48.922;9.116;2022-07-21T13:02:21;4.47;;;3.70;;
7573;SDS011;3828;48.922;9.116;2022-07-21T13:04:47;5.87;;;4.00;;
7573;SDS011;3828;48.922;9.116;2022-07-21T13:07:16;3.40;;;3.13;;
7573;SDS011;3828;48.922;9.116;2022-07-21T13:09:42;3.70;;;3.40;;
7573;SDS011;3828;48.922;9.116;2022-07-21T13:12:10;3.73;;;3.27;;
7573;SDS011;3828;48.922;9.116;2022-07-21T13:14:37;3.43;;;3.17;;
7573;SDS011;3828;48.922;9.116;2022-07-21T13:17:04;3.57;;;3.13;;
7573;SDS011;3828;48.922;9.116;2022-07-21T13:19:32;3.47;;;3.07;;
7573;SDS011;3828;48.922;9.116;2022-07-21T13:22:00;3.83;;;3.10;;
7573;SDS011;3828;48.922;9.116;2022-07-21T13:24:29;3.73;;;3.30;;
7573;SDS011;3828;48.922;9.116;2022-07-21T13:26:56;3.47;;;3.27;;
7573;SDS011;3828;48.922;9.116;2022-07-21T13:29:23;3.43;;;3.10;;
7573;SDS011;3828;48.922;9.116;2022-07-21T13:31:50;3.20;;;3.00;;
7573;SDS011;3828;48.922;9.116;2022-07-21T13:34:17;3.07;;;2.80;;
7573;SDS011;3828;48.922;9.116;2022-07-21T13:36:44;4.50;;;3.43;;
7573;SDS011;3828;48.922;9.116;2022-07-21T13:39:10;3.37;;;2.90;;
7573;SDS011;3828;48.922;9.116;2022-07-21T13:41:39;3.10;;;2.80;;
7573;SDS011;3828;48.922;9.116;2022-07-21T13:44:06;3.97;;;3.20;;
7573;SDS011;3828;48.922;9.116;2022-07-21T13:46:33;4.30;;;3.20;;
7573;SDS011;3828;48.922;9.116;2022-07-21T13:49:00;4.80;;;3.10;;
7573;SDS011;3828;48.922;9.116;2022-07-21T13:51:26;3.40;;;3.10;;
7573;SDS011;3828;48.922;9.116;2022-07-21T13:53:53;4.53;;;3.70;;
7573;SDS011;3828;48.922;9.116;2022-07-21T13:56:20;4.67;;;3.13;;
7573;SDS011;3828;48.922;9.116;2022-07-21T13:58:49;3.53;;;3.20;;
7573;SDS011;3828;48.922;9.116;2022-07-21T14:01:16;3.50;;;3.20;;
7573;SDS011;3828;48.922;9.116;2022-07-21T14:03:43;3.33;;;3.10;;
7573;SDS011;3828;48.922;9.116;2022-07-21T14:06:14;2.97;;;2.73;;
7573;SDS011;3828;48.922;9.116;2022-07-21T14:08:42;3.40;;;3.10;;
7573;SDS011;3828;48.922;9.116;2022-07-21T14:11:09;3.60;;;3.40;;
7573;SDS011;3828;48.922;9.116;2022-07-21T14:13:38;4.73;;;3.60;;
7573;SDS011;3828;48.922;9.116;2022-07-21T14:16:07;3.10;;;2.90;;
7573;SDS011;3828;48.922;9.116;2022-07-21T14:18:34;3.93;;;3.20;;
7573;SDS011;3828;48.922;9.116;2022-07-21T14:21:02;3.40;;;3.10;;
7573;SDS011;3828;48.922;9.116;2022-07-21T14:23:29;3.33;;;2.83;;
7573;SDS011;3828;48.922;9.116;2022-07-21T14:25:56;4.07;;;3.20;;
7573;SDS011;3828;48.922;9.116;2022-07-21T14:28:22;3.40;;;3.10;;
7573;SDS011;3828;48.922;9.116;2022-07-21T14:30:49;3.23;;;2.97;;
7573;SDS011;3828;48.922;9.116;2022-07-21T14:33:17;2.60;;;2.40;;
7573;SDS011;3828;48.922;9.116;2022-07-21T14:35:44;3.93;;;2.70;;
7573;SDS011;3828;48.922;9.116;2022-07-21T14:38:11;3.53;;;3.03;;
7573;SDS011;3828;48.922;9.116;2022-07-21T14:40:37;3.17;;;2.87;;
7573;SDS011;3828;48.922;9.116;2022-07-21T14:43:05;3.43;;;2.90;;
7573;SDS011;3828;48.922;9.116;2022-07-21T14:45:31;3.40;;;2.57;;
7573;SDS011;3828;48.922;9.116;2022-07-21T14:47:58;4.93;;;3.10;;
7573;SDS011;3828;48.922;9.116;2022-07-21T14:50:27;3.23;;;2.93;;
7573;SDS011;3828;48.922;9.116;2022-07-21T14:52:54;4.30;;;2.93;;
7573;SDS011;3828;48.922;9.116;2022-07-21T14:55:24;3.13;;;2.83;;
7573;SDS011;3828;48.922;9.116;2022-07-21T14:57:53;3.50;;;2.97;;
7573;SDS011;3828;48.922;9.116;2022-07-21T15:00:20;4.73;;;2.77;;
7573;SDS011;3828;48.922;9.116;2022-07-21T15:02:48;3.17;;;2.97;;
7573;SDS011;3828;48.922;9.116;2022-07-21T15:05:15;3.30;;;3.00;;
7573;SDS011;3828;48.922;9.116;2022-07-21T15:07:43;2.97;;;2.77;;
7573;SDS011;3828;48.922;9.116;2022-07-21T15:10:10;2.90;;;2.70;;
7573;SDS011;3828;48.922;9.116;2022-07-21T15:12:37;3.57;;;3.07;;
7573;SDS011;3828;48.922;9.116;2022-07-21T15:15:04;3.10;;;2.87;;
7573;SDS011;3828;48.922;9.116;2022-07-21T15:17:34;3.77;;;2.97;;
7573;SDS011;3828;48.922;9.116;2022-07-21T15:20:02;2.90;;;2.63;;
7573;SDS011;3828;48.922;9.116;2022-07-21T15:22:30;3.87;;;2.90;;
7573;SDS011;3828;48.922;9.116;2022-07-21T15:24:58;2.60;;;2.40;;
7573;SDS011;3828;48.922;9.116;2022-07-21T15:27:25;5.27;;;4.80;;
7573;SDS011;3828;48.922;9.116;2022-07-21T15:29:52;3.93;;;3.60;;
7573;SDS011;3828;48.922;9.116;2022-07-21T15:32:20;4.13;;;2.67;;